• Join FlightAware (Why Join?)
  • Login
  • US Flag 
02:48PM EDT


 

Airport Tracker/Info


-or-


 

Live Flight TrackerFlight Track Log ✈ DAL6115 ✈ 15-Apr-2013 ✈ KJFK - KROC

Flight Track Log - Related Links

Times and Time Zones

All times are in EDT time to prevent confusion due to time zone crossing. See the DAL6115 flight status page for this flight to view local times or setup timezone preferences in your user account.

Time Position Orientation Groundspeed Altitude Reporting Facility
EDT Latitude Longitude Course Direction KTS MPH feet Rate Location/Type
09:47AM 40.6667 -73.7500 75° East 175 201 1,500  Level New York TRACON
09:49AM 40.6833 -73.6667 75° East 224 258 3,700 2,280 Climbing New York TRACON
09:49AM 40.7167 -73.5833 62° Northeast 260 299 6,100 2,580 Climbing New York TRACON
09:51AM 40.7333 -73.5000 75° East 276 318 8,900 2,280 Climbing New York TRACON
09:51AM 40.8000 -73.5000 360° North 260 299 10,700 1,680 Climbing New York TRACON
09:52AM 40.8667 -73.5500 330° Northwest 284 327 12,200 1,200 Climbing New York TRACON
09:53AM 40.9333 -73.6167 323° Northwest 316 364 13,200 960 Climbing New York TRACON
09:54AM 40.9667 -73.7167 294° West 353 406 14,100 1,020 Climbing New York TRACON
09:55AM 41.0167 -73.8333 300° West 388 447 15,200 1,020 Climbing New York TRACON
09:56AM 41.0500 -73.9667 288° West 370 426 16,200 900 Climbing New York TRACON
09:57AM 41.0833 -74.1000 288° West 376 433 17,000 420 Climbing New York TRACON
09:59AM 41.1464 -74.2953 293° West 397 457 17,400 540 Climbing New York Center
10:00AM 41.1844 -74.4211 292° West 385 443 18,400 1,260 Climbing New York Center
10:01AM 41.2161 -74.5358 290° West 378 435 19,900 1,560 Climbing New York Center
10:02AM 41.2786 -74.6608 304° West 372 428 21,600 1,020 Climbing New York Center
10:03AM 41.3358 -74.7581 308° West 372 428 22,000 180 Climbing New York Center
10:04AM 41.4089 -74.8758 310° West 386 444 22,000  Level New York Center
10:05AM 41.4839 -74.9967 310° West 409 471 22,000  Level New York Center
10:06AM 41.5564 -75.1233 307° West 422 486 22,000  Level New York Center
10:07AM 41.6053 -75.2597 296° West 422 486 22,000  Level New York Center
10:08AM 41.6456 -75.4011 291° West 410 472 22,000  Level New York Center
10:09AM 41.6839 -75.5428 290° West 410 472 22,000  Level New York Center
10:10AM 41.7258 -75.6875 291° West 415 478 22,000  Level New York Center
10:11AM 41.7658 -75.8267 291° West 415 478 22,000  Level New York Center
10:12AM 41.8056 -75.9689 291° West 415 478 22,000  Level New York Center
10:13AM 41.8428 -76.1136 289° West 415 478 22,000  Level New York Center
10:14AM 41.8844 -76.2508 292° West 415 478 22,000  Level New York Center
10:15AM 41.9747 -76.3697 316° Northwest 406 467 22,000  Level New York Center
10:16AM 42.0614 -76.4694 320° Northwest 406 467 22,000  Level New York Center
10:17AM 42.1503 -76.5694 320° Northwest 411 473 22,000 -1,140 Level New York Center
10:21AM 42.4867 -76.9564 320° Northwest 400 460 16,600 -1,260 Descending Cleveland Center
10:22AM 42.5644 -77.0450 320° Northwest 375 432 16,100 -1,320 Descending Cleveland Center
10:23AM 42.6314 -77.1203 320° Northwest 363 418 14,200 -2,100 Descending Cleveland Center
10:23AM 42.6742 -77.1631 324° Northwest 365 420 13,200 -1,980 Descending Cleveland Center
10:24AM 42.7233 -77.2028 329° Northwest 364 419 12,000 -1,920 Descending Cleveland Center
10:24AM 42.7594 -77.2236 337° Northwest 326 375 11,300 -1,500 Descending Cleveland Center
10:25AM 42.8078 -77.2408 345° North 329 379 10,500 -1,080 Descending Cleveland Center
10:25AM 42.8461 -77.2614 339° North 288 331 10,100 -900 Descending Cleveland Center
10:26AM 42.8819 -77.2764 343° North 306 352 9,600 -1,140 Descending Cleveland Center
10:26AM 42.9178 -77.2944 340° North 276 318 9,000 -1,140 Descending Cleveland Center
10:27AM 42.9536 -77.3094 343° North 288 331 8,500 -1,200 Descending Cleveland Center
10:27AM 42.9894 -77.3219 346° North 265 305 7,800 -1,620 Descending Cleveland Center
10:28AM 43.0192 -77.3403 336° Northwest 269 310 6,900 -1,980 Descending Cleveland Center
10:28AM 43.0431 -77.3703 317° Northwest 241 277 6,000 -1,800 Descending Cleveland Center
10:29AM 43.0731 -77.4000 324° Northwest 253 291 5,100 -1,740 Descending Cleveland Center
10:29AM 43.0944 -77.4272 317° Northwest 245 282 4,300 -1,500 Descending Cleveland Center
10:30AM 43.1267 -77.4542 329° Northwest 248 285 3,600 -1,440 Descending Cleveland Center
10:30AM 43.1425 -77.5017 295° West 220 253 2,700 -1,140 Descending Cleveland Center
10:31AM 43.1556 -77.5294 303° West 233 268 2,500 -240 Descending Cleveland Center
10:31AM 43.1711 -77.5658 300° West 194 223 2,500 -120 Level Cleveland Center
10:32AM 43.1803 -77.5908 297° West 209 241 2,400 -600 Descending Cleveland Center
10:32AM 43.1811 -77.6250 272° West 131 151 1,900 -720 Descending Cleveland Center
10:33AM 43.1525 -77.6519 214° Southwest 133 153 1,300 -600 Descending Cleveland Center
10:35AM 43.1191 -77.6719 204° Southwest  Level Estimated
10:42AM 43.1191 -77.6719 14° North  Level Estimated